Main page
METAR-TAF:

METAR-TAF

Airports :

Tarbes Lourdes, France

Tarbes–Lourdes–Pyrénées Airport

latitude: 43-11N, longitude: 000-00W, elevation: 379 m

Current weather observation

The report was made 20 minutes ago, at 08:30 UTC
Wind 6 kt from the West, varying between Southwest and Northwest
Temperature 23°C
Humidity 65%
Pressure 1010 hPa
Visibility 10 km or more
Broken clouds at a height of 10000 ft
Overcast at a height of 13000 ft

METAR: LFBT 260830Z AUTO 27006KT 230V310 9999 BKN100 OVC130 23/16 Q1010 TEMPO VRB15G30KT 4000 TSRA BKN020 BKN060CB

Time: 10:50 (08:50 UTC)


TAF: missing

Weather observations and forecasts of more than 4000 airports (METAR and TAF reports).

The available stations are represented by yellow and red dots on the map.

Hover mouse over dot to see the name of the station.

Then click to see weather observations and forecasts.

To change the map : click on the green buttons with a black cross to zoom in, on the green button with a dash to zoom out, or on the green arrows for adjacent maps.


METAR-TAF: